Time;durP1;ratioP1;P1;durP2;ratioP2;P2;SDS_P1;SDS_P2;PMS_P1;PMS_P2;Temp;Humidity;BMP_temperature;BMP_pressure;BME280_temperature;BME280_humidity;BME280_pressure;Samples;Min_cycle;Max_cycle;Signal;HPM_P1;HPM_P2
2024/01/28 00:02:20;;;;;;;13.32;4.68;;;;;;;;;;5017383;28;20048;-77
2024/01/28 00:04:46;;;;;;;22.80;8.48;;;;;;;;;;5038441;28;20018;-74
2024/01/28 00:07:12;;;;;;;20.60;6.70;;;;;;;;;;5038012;28;20034;-77
2024/01/28 00:09:38;;;;;;;52.33;13.93;;;;;;;;;;5021814;28;20033;-75
2024/01/28 00:12:04;;;;;;;25.35;7.70;;;;;;;;;;5023080;28;20026;-75
2024/01/28 00:14:30;;;;;;;8.40;4.45;;;;;;;;;;5024698;28;20076;-75
2024/01/28 00:16:56;;;;;;;5.50;3.78;;;;;;;;;;5024132;28;20025;-77
2024/01/28 00:19:22;;;;;;;9.15;4.10;;;;;;;;;;5028659;28;20099;-77
2024/01/28 00:21:48;;;;;;;8.68;4.15;;;;;;;;;;5025138;28;20133;-77
2024/01/28 00:24:14;;;;;;;8.55;4.30;;;;;;;;;;5020242;28;20033;-76
2024/01/28 00:26:41;;;;;;;8.35;4.05;;;;;;;;;;5021887;28;20018;-77
2024/01/28 00:29:07;;;;;;;14.13;3.85;;;;;;;;;;5021914;28;20032;-77
2024/01/28 00:31:33;;;;;;;6.53;3.70;;;;;;;;;;5022056;28;20018;-78
2024/01/28 00:34:00;;;;;;;4.90;3.00;;;;;;;;;;5023702;28;20204;-76
2024/01/28 00:36:26;;;;;;;5.85;3.42;;;;;;;;;;5017957;28;20026;-77
2024/01/28 00:38:52;;;;;;;6.68;4.07;;;;;;;;;;5020933;28;20068;-76
2024/01/28 00:41:22;;;;;;;12.65;3.90;;;;;;;;;;5020063;28;20056;-75
2024/01/28 00:43:49;;;;;;;7.13;3.65;;;;;;;;;;5018725;28;20033;-76
2024/01/28 00:46:15;;;;;;;7.88;4.28;;;;;;;;;;5021537;28;20026;-76
2024/01/28 00:48:41;;;;;;;10.98;4.47;;;;;;;;;;5022512;28;20025;-75
2024/01/28 00:51:07;;;;;;;7.90;3.80;;;;;;;;;;5024322;28;20809;-75
2024/01/28 00:53:33;;;;;;;8.77;3.80;;;;;;;;;;5016452;28;20026;-76
2024/01/28 00:55:59;;;;;;;8.63;4.45;;;;;;;;;;5024860;28;20029;-76
2024/01/28 00:58:29;;;;;;;6.20;4.00;;;;;;;;;;5018540;28;20041;-76
2024/01/28 01:00:54;;;;;;;10.95;4.60;;;;;;;;;;5021727;28;20044;-76
2024/01/28 01:03:20;;;;;;;9.43;3.70;;;;;;;;;;5012312;28;20041;-75
2024/01/28 01:05:46;;;;;;;7.53;4.45;;;;;;;;;;5020920;28;20148;-76
2024/01/28 01:08:13;;;;;;;8.82;3.58;;;;;;;;;;5015314;28;20088;-76
2024/01/28 01:10:39;;;;;;;6.43;3.47;;;;;;;;;;5022670;28;20039;-76
2024/01/28 01:13:04;;;;;;;17.00;3.38;;;;;;;;;;5018089;28;20025;-75
2024/01/28 01:15:31;;;;;;;5.40;2.92;;;;;;;;;;5008201;28;20052;-76
2024/01/28 01:17:57;;;;;;;6.05;3.97;;;;;;;;;;5026459;28;20029;-75
2024/01/28 01:20:23;;;;;;;7.13;3.95;;;;;;;;;;5025788;28;20036;-75
2024/01/28 01:22:49;;;;;;;10.45;4.60;;;;;;;;;;5019147;28;20033;-76
2024/01/28 01:25:15;;;;;;;6.88;3.67;;;;;;;;;;5011675;28;20103;-75
2024/01/28 01:27:41;;;;;;;13.00;4.15;;;;;;;;;;5015122;28;20179;-75
2024/01/28 01:30:09;;;;;;;13.18;5.35;;;;;;;;;;5011654;28;20569;-75
2024/01/28 01:32:37;;;;;;;6.40;2.97;;;;;;;;;;5021318;28;20041;-76
2024/01/28 01:35:03;;;;;;;7.60;3.95;;;;;;;;;;5022062;28;20084;-76
2024/01/28 01:37:29;;;;;;;9.48;4.88;;;;;;;;;;5020754;28;20269;-75
2024/01/28 01:39:55;;;;;;;6.65;3.92;;;;;;;;;;5014850;28;20025;-75
2024/01/28 01:42:21;;;;;;;5.97;3.00;;;;;;;;;;5014351;28;20034;-75
2024/01/28 01:44:47;;;;;;;8.48;3.13;;;;;;;;;;5016883;28;20025;-76
2024/01/28 01:47:13;;;;;;;15.02;3.83;;;;;;;;;;5017958;28;20026;-75
2024/01/28 01:49:39;;;;;;;12.50;5.13;;;;;;;;;;5024368;28;20029;-76
2024/01/28 01:52:06;;;;;;;14.88;4.22;;;;;;;;;;5018011;28;20568;-77
2024/01/28 01:54:32;;;;;;;7.15;4.40;;;;;;;;;;5023082;28;20396;-76
2024/01/28 01:56:58;;;;;;;9.07;2.78;;;;;;;;;;5019217;28;20117;-75
2024/01/28 01:59:25;;;;;;;7.53;4.70;;;;;;;;;;5019671;28;20550;-76
2024/01/28 02:01:54;;;;;;;13.80;4.43;;;;;;;;;;5020951;28;20040;-76
2024/01/28 02:04:20;;;;;;;13.48;5.40;;;;;;;;;;5018072;28;20041;-75
2024/01/28 02:06:46;;;;;;;4.32;2.28;;;;;;;;;;5021774;28;20398;-76
2024/01/28 02:09:12;;;;;;;4.90;2.47;;;;;;;;;;5019358;28;20205;-77
2024/01/28 02:11:38;;;;;;;8.10;4.10;;;;;;;;;;5015865;28;20029;-75
2024/01/28 02:14:04;;;;;;;7.00;3.38;;;;;;;;;;5018241;28;20604;-76
2024/01/28 02:16:30;;;;;;;9.40;3.92;;;;;;;;;;5019196;28;20578;-76
2024/01/28 02:18:56;;;;;;;5.93;2.60;;;;;;;;;;5024924;28;20026;-76
2024/01/28 02:21:23;;;;;;;9.15;3.22;;;;;;;;;;5015778;28;20021;-76
2024/01/28 02:23:48;;;;;;;9.02;3.97;;;;;;;;;;5024078;28;20039;-75
2024/01/28 02:26:15;;;;;;;7.38;3.67;;;;;;;;;;5020981;28;20615;-75
2024/01/28 02:28:40;;;;;;;8.68;3.30;;;;;;;;;;5014741;28;20054;-75
2024/01/28 02:31:06;;;;;;;7.82;4.25;;;;;;;;;;5021702;28;20087;-76
2024/01/28 02:33:32;;;;;;;7.45;3.92;;;;;;;;;;5015240;28;20041;-76
2024/01/28 02:35:58;;;;;;;5.47;3.00;;;;;;;;;;5024353;28;20026;-76
2024/01/28 02:38:24;;;;;;;4.07;2.20;;;;;;;;;;5005992;28;20037;-76
2024/01/28 02:40:55;;;;;;;8.80;4.65;;;;;;;;;;5020309;28;20036;-76
2024/01/28 02:43:21;;;;;;;9.23;4.72;;;;;;;;;;5014873;28;20034;-75
2024/01/28 02:45:47;;;;;;;12.30;3.88;;;;;;;;;;5018006;28;20041;-74
2024/01/28 02:48:13;;;;;;;8.70;3.38;;;;;;;;;;5018567;28;20025;-76
2024/01/28 02:50:39;;;;;;;9.05;3.97;;;;;;;;;;5026229;28;20503;-75
2024/01/28 02:53:05;;;;;;;4.03;3.20;;;;;;;;;;5014046;28;20034;-76
2024/01/28 02:55:31;;;;;;;5.10;3.10;;;;;;;;;;5021693;28;20112;-76
2024/01/28 02:57:56;;;;;;;7.38;3.10;;;;;;;;;;5018462;28;20040;-77
2024/01/28 03:00:23;;;;;;;14.52;2.70;;;;;;;;;;5021036;28;20535;-75
2024/01/28 03:02:49;;;;;;;8.02;4.13;;;;;;;;;;5016146;28;20029;-76
2024/01/28 03:05:15;;;;;;;5.78;3.15;;;;;;;;;;5015139;28;20033;-76
2024/01/28 03:07:41;;;;;;;8.43;3.28;;;;;;;;;;5019247;28;20034;-76
2024/01/28 03:10:07;;;;;;;5.80;3.33;;;;;;;;;;5020565;28;20018;-75
2024/01/28 03:12:34;;;;;;;3.80;2.75;;;;;;;;;;5006927;28;20033;-75
2024/01/28 03:15:00;;;;;;;6.32;3.33;;;;;;;;;;5020309;28;20029;-76
2024/01/28 03:17:26;;;;;;;6.43;3.55;;;;;;;;;;5024775;28;20415;-75
2024/01/28 03:19:51;;;;;;;4.18;2.47;;;;;;;;;;5033544;28;20120;-75
2024/01/28 03:22:17;;;;;;;4.10;3.25;;;;;;;;;;5033663;28;20033;-76
2024/01/28 03:24:43;;;;;;;6.40;4.20;;;;;;;;;;5026191;28;20044;-76
2024/01/28 03:27:09;;;;;;;11.88;4.80;;;;;;;;;;5017546;28;20109;-76
2024/01/28 03:29:35;;;;;;;6.45;4.88;;;;;;;;;;5022010;28;20029;-77
2024/01/28 03:32:02;;;;;;;6.22;3.75;;;;;;;;;;5018282;28;20029;-77
2024/01/28 03:34:28;;;;;;;8.00;4.00;;;;;;;;;;5012935;28;20033;-76
2024/01/28 03:36:54;;;;;;;8.73;4.07;;;;;;;;;;5013964;28;20101;-75
2024/01/28 03:39:20;;;;;;;7.03;3.60;;;;;;;;;;5018244;28;20951;-76
2024/01/28 03:41:46;;;;;;;9.35;4.47;;;;;;;;;;5018418;28;20873;-76
2024/01/28 03:44:15;;;;;;;11.65;4.22;;;;;;;;;;5019689;28;20633;-76
2024/01/28 03:46:41;;;;;;;5.00;2.80;;;;;;;;;;5018770;28;20026;-76
2024/01/28 03:49:07;;;;;;;7.47;3.25;;;;;;;;;;5022624;28;20400;-76
2024/01/28 03:51:33;;;;;;;10.38;3.17;;;;;;;;;;5021747;28;20146;-76
2024/01/28 03:53:58;;;;;;;15.30;2.85;;;;;;;;;;5017153;28;20122;-77
2024/01/28 03:56:24;;;;;;;5.78;3.33;;;;;;;;;;5023243;28;20060;-77
2024/01/28 03:58:50;;;;;;;5.65;2.92;;;;;;;;;;5023404;28;20510;-77
2024/01/28 04:01:16;;;;;;;6.80;3.20;;;;;;;;;;5024798;28;20090;-75
2024/01/28 04:03:42;;;;;;;5.43;4.03;;;;;;;;;;5025432;28;20134;-77
2024/01/28 04:06:08;;;;;;;5.55;3.58;;;;;;;;;;5021137;28;20566;-76
2024/01/28 04:08:34;;;;;;;5.68;2.40;;;;;;;;;;5024300;28;20044;-75
2024/01/28 04:11:02;;;;;;;5.28;2.97;;;;;;;;;;5027345;28;20207;-76
2024/01/28 04:13:29;;;;;;;6.72;2.92;;;;;;;;;;5017602;28;20040;-75
2024/01/28 04:15:55;;;;;;;5.10;1.88;;;;;;;;;;5027104;28;20040;-77
2024/01/28 04:18:20;;;;;;;15.32;3.55;;;;;;;;;;5015841;28;20026;-76
2024/01/28 04:20:47;;;;;;;7.07;2.55;;;;;;;;;;5023332;28;20115;-76
2024/01/28 04:23:14;;;;;;;8.27;3.28;;;;;;;;;;5018250;28;20044;-77
2024/01/28 04:25:40;;;;;;;8.57;3.67;;;;;;;;;;5020921;28;20017;-77
2024/01/28 04:28:06;;;;;;;8.23;2.85;;;;;;;;;;5017057;28;20029;-76
2024/01/28 04:30:32;;;;;;;9.40;3.10;;;;;;;;;;5023523;28;20055;-76
2024/01/28 04:32:59;;;;;;;6.43;3.28;;;;;;;;;;5015680;28;20108;-75
2024/01/28 04:35:25;;;;;;;7.82;4.10;;;;;;;;;;5027102;28;20056;-76
2024/01/28 04:37:51;;;;;;;8.23;3.63;;;;;;;;;;5023330;28;20076;-75
2024/01/28 04:40:17;;;;;;;4.78;3.10;;;;;;;;;;5019120;28;20021;-76
2024/01/28 04:42:43;;;;;;;17.83;3.85;;;;;;;;;;5019352;28;20033;-76
2024/01/28 04:45:10;;;;;;;4.80;3.35;;;-3.30;99.90;;;;;;5025637;28;20361;-76
2024/01/28 04:47:37;;;;;;;3.22;2.42;;;;;;;;;;5018525;28;20029;-75
2024/01/28 04:50:04;;;;;;;8.75;2.88;;;;;;;;;;5024499;28;20517;-76
2024/01/28 04:52:30;;;;;;;6.00;2.85;;;;;;;;;;5017750;28;20151;-76
2024/01/28 04:54:56;;;;;;;4.93;3.55;;;;;;;;;;5016736;28;20132;-74
2024/01/28 04:57:22;;;;;;;4.63;3.10;;;;;;;;;;5024087;28;20501;-75
2024/01/28 04:59:48;;;;;;;4.97;3.78;;;;;;;;;;5027899;28;20522;-75
2024/01/28 05:02:14;;;;;;;5.55;2.70;;;;;;;;;;5020627;28;20519;-76
2024/01/28 05:04:40;;;;;;;5.32;2.90;;;;;;;;;;5022727;28;20496;-76
2024/01/28 05:07:06;;;;;;;4.68;2.63;;;;;;;;;;5014651;28;20025;-75
2024/01/28 05:09:32;;;;;;;10.38;3.58;;;;;;;;;;5019181;28;20375;-75
2024/01/28 05:11:59;;;;;;;17.05;4.35;;;;;;;;;;5018175;28;20078;-76
2024/01/28 05:14:25;;;;;;;12.88;5.15;;;;;;;;;;5016512;28;20029;-76
2024/01/28 05:16:51;;;;;;;7.60;4.47;;;;;;;;;;5021241;28;20040;-76
2024/01/28 05:19:17;;;;;;;15.35;3.80;;;-3.10;99.90;;;;;;5026716;28;20102;-75
2024/01/28 05:21:43;;;;;;;7.80;3.47;;;;;;;;;;5016761;28;20021;-75
2024/01/28 05:24:09;;;;;;;4.28;2.50;;;;;;;;;;5014761;28;20033;-75
2024/01/28 05:26:37;;;;;;;8.00;3.28;;;;;;;;;;5021988;28;20702;-75
2024/01/28 05:29:05;;;;;;;7.47;4.22;;;;;;;;;;5013866;28;20021;-74
2024/01/28 05:31:32;;;;;;;8.75;3.83;;;;;;;;;;5014164;28;20128;-76
2024/01/28 05:34:00;;;;;;;17.35;2.47;;;;;;;;;;5020229;28;20018;-76
2024/01/28 05:36:26;;;;;;;16.48;2.75;;;;;;;;;;5016629;28;20122;-76
2024/01/28 05:38:54;;;;;;;3.83;3.17;;;;;;;;;;5011103;28;20141;-75
2024/01/28 05:41:20;;;;;;;7.03;2.65;;;;;;;;;;5014313;28;20056;-75
2024/01/28 05:43:46;;;;;;;5.82;2.78;;;;;;;;;;5015629;28;20472;-75
2024/01/28 05:46:12;;;;;;;6.45;2.80;;;;;;;;;;5016771;28;20227;-75
2024/01/28 05:48:38;;;;;;;5.30;2.72;;;;;;;;;;5020592;28;20536;-76
2024/01/28 05:51:04;;;;;;;8.23;3.28;;;;;;;;;;5025740;28;20172;-74
2024/01/28 05:53:30;;;;;;;7.00;3.65;;;;;;;;;;5019598;28;20613;-77
2024/01/28 05:55:56;;;;;;;6.25;3.08;;;;;;;;;;5020492;28;20025;-75
2024/01/28 05:58:23;;;;;;;3.90;2.97;;;;;;;;;;5002465;28;20033;-76
2024/01/28 06:00:49;;;;;;;3.45;2.47;;;;;;;;;;5021414;28;20022;-75
2024/01/28 06:03:15;;;;;;;5.25;3.25;;;;;;;;;;5018798;28;20029;-75
2024/01/28 06:05:41;;;;;;;5.60;3.92;;;;;;;;;;5022084;28;20025;-76
2024/01/28 06:08:07;;;;;;;6.53;3.53;;;;;;;;;;5011982;28;20041;-75
2024/01/28 06:10:34;;;;;;;4.43;2.72;;;;;;;;;;5013501;28;20029;-75
2024/01/28 06:13:00;;;;;;;2.90;2.10;;;;;;;;;;5017708;28;20025;-74
2024/01/28 06:15:26;;;;;;;7.75;4.45;;;;;;;;;;5014979;28;20096;-76
2024/01/28 06:17:51;;;;;;;16.98;3.45;;;;;;;;;;5015169;28;20630;-75
2024/01/28 06:20:17;;;;;;;6.85;3.42;;;;;;;;;;5022534;28;20055;-75
2024/01/28 06:22:43;;;;;;;15.40;3.15;;;;;;;;;;5019573;28;20036;-75
2024/01/28 06:25:10;;;;;;;3.20;2.08;;;;;;;;;;5020431;28;20044;-76
2024/01/28 06:27:36;;;;;;;4.70;3.10;;;;;;;;;;5009546;28;20026;-74
2024/01/28 06:30:02;;;;;;;6.15;3.15;;;;;;;;;;5022023;28;20037;-75
2024/01/28 06:32:28;;;;;;;13.43;2.97;;;;;;;;;;5026553;28;20032;-76
2024/01/28 06:34:54;;;;;;;2.45;2.03;;;;;;;;;;5038716;28;20028;-74
2024/01/28 06:37:21;;;;;;;4.65;2.45;;;;;;;;;;5029585;28;20034;-77
2024/01/28 06:39:51;;;;;;;3.83;2.30;;;;;;;;;;5027878;28;20026;-76
2024/01/28 06:42:18;;;;;;;12.60;4.60;;;;;;;;;;5020829;28;20041;-76
2024/01/28 06:44:44;;;;;;;5.90;3.40;;;;;;;;;;5023683;28;20074;-75
2024/01/28 06:47:10;;;;;;;6.43;3.75;;;;;;;;;;5020610;28;20426;-74
2024/01/28 06:49:36;;;;;;;8.38;2.90;;;;;;;;;;5018807;28;20061;-75
2024/01/28 06:52:02;;;;;;;4.35;3.20;;;;;;;;;;5015302;28;20025;-74
2024/01/28 06:54:28;;;;;;;7.05;3.95;;;;;;;;;;5014793;28;20056;-75
2024/01/28 06:56:54;;;;;;;13.45;3.67;;;;;;;;;;5016792;28;20022;-75
2024/01/28 06:59:21;;;;;;;7.10;3.60;;;;;;;;;;5018768;28;20037;-75
2024/01/28 07:01:46;;;;;;;4.20;2.75;;;;;;;;;;5014037;28;20024;-76
2024/01/28 07:04:12;;;;;;;2.85;2.45;;;;;;;;;;5020120;28;20037;-75
2024/01/28 07:06:38;;;;;;;16.02;5.22;;;;;;;;;;5013781;28;20071;-75
2024/01/28 07:09:05;;;;;;;4.43;3.35;;;;;;;;;;5002822;28;20033;-75
2024/01/28 07:11:31;;;;;;;15.40;3.78;;;;;;;;;;5016948;28;20060;-75
2024/01/28 07:13:57;;;;;;;4.00;3.17;;;;;;;;;;5017888;28;20508;-74
2024/01/28 07:16:23;;;;;;;5.97;2.97;;;;;;;;;;5008661;28;20049;-75
2024/01/28 07:18:49;;;;;;;5.80;3.80;;;;;;;;;;5013453;28;20045;-75
2024/01/28 07:21:16;;;;;;;6.30;3.70;;;;;;;;;;5014507;28;20108;-75
2024/01/28 07:23:41;;;;;;;7.90;4.40;;;;;;;;;;5018102;28;20049;-76
2024/01/28 07:26:09;;;;;;;5.32;3.40;;;;;;;;;;5017342;28;20033;-75
2024/01/28 07:28:35;;;;;;;4.65;3.22;;;;;;;;;;5019162;28;20030;-76
2024/01/28 07:31:00;;;;;;;5.97;3.20;;;;;;;;;;5018070;28;20388;-77
2024/01/28 07:33:26;;;;;;;8.05;3.10;;;;;;;;;;5015023;28;20030;-75
2024/01/28 07:35:53;;;;;;;6.90;3.25;;;;;;;;;;5025335;28;20093;-75
2024/01/28 07:38:19;;;;;;;14.90;4.03;;;;;;;;;;4999490;28;20025;-75
2024/01/28 07:40:45;;;;;;;24.98;7.80;;;;;;;;;;5017060;28;20029;-76
2024/01/28 07:43:11;;;;;;;10.55;5.13;;;;;;;;;;5018185;28;20493;-74
2024/01/28 07:45:37;;;;;;;23.83;9.07;;;;;;;;;;5026314;28;20037;-75
2024/01/28 07:48:03;;;;;;;10.43;7.13;;;;;;;;;;5014308;28;20058;-76
2024/01/28 07:50:29;;;;;;;23.95;10.90;;;;;;;;;;5026055;28;20068;-76
2024/01/28 07:52:55;;;;;;;16.58;7.22;;;;;;;;;;5019063;28;20060;-76
2024/01/28 07:55:21;;;;;;;24.05;10.18;;;;;;;;;;5018442;28;20037;-75
2024/01/28 07:57:47;;;;;;;22.13;12.05;;;;;;;;;;5017227;28;20033;-76
2024/01/28 08:00:13;;;;;;;23.20;9.40;;;;;;;;;;5023126;28;20013;-76
2024/01/28 08:02:39;;;;;;;22.42;9.30;;;;;;;;;;5017140;28;20029;-75
2024/01/28 08:05:05;;;;;;;23.65;9.25;;;;;;;;;;5023645;28;20026;-77
2024/01/28 08:07:31;;;;;;;21.48;9.90;;;;;;;;;;5016188;28;20052;-76
2024/01/28 08:09:57;;;;;;;22.92;10.88;;;;;;;;;;5011481;28;20034;-75
2024/01/28 08:12:23;;;;;;;16.05;9.68;;;;;;;;;;5018652;28;20037;-76
2024/01/28 08:14:49;;;;;;;17.63;10.52;;;;;;;;;;5007961;28;20021;-75
2024/01/28 08:17:15;;;;;;;14.40;8.77;;;;;;;;;;5012050;28;20029;-75
2024/01/28 08:19:42;;;;;;;15.23;6.38;;;;;;;;;;5022159;28;20026;-75
2024/01/28 08:22:08;;;;;;;13.35;6.57;;;;;;;;;;5011692;28;20030;-75
2024/01/28 08:24:33;;;;;;;16.38;7.35;;;;;;;;;;5018967;28;20029;-74
2024/01/28 08:26:59;;;;;;;16.35;5.88;;;;;;;;;;5007468;28;20122;-75
2024/01/28 08:29:26;;;;;;;10.18;6.97;;;;;;;;;;5017075;28;20750;-74
2024/01/28 08:31:52;;;;;;;17.15;6.05;;;;;;;;;;5016818;28;20061;-76
2024/01/28 08:34:18;;;;;;;18.85;8.25;;;;;;;;;;5022652;28;20068;-75
2024/01/28 08:36:44;;;;;;;13.85;6.13;;;;;;;;;;5024648;28;20033;-77
2024/01/28 08:39:10;;;;;;;17.63;7.97;;;;;;;;;;5023119;28;20688;-76
2024/01/28 08:41:38;;;;;;;12.25;7.50;;;-2.20;99.90;;;;;;5033940;28;20048;-75
2024/01/28 08:44:07;;;;;;;17.05;9.95;;;;;;;;;;5018786;28;20028;-76
2024/01/28 08:46:33;;;;;;;26.02;14.00;;;;;;;;;;5025099;28;20396;-76
2024/01/28 08:48:59;;;;;;;41.00;16.65;;;;;;;;;;5010654;28;20121;-76
2024/01/28 08:51:25;;;;;;;39.83;16.45;;;;;;;;;;5016806;28;20149;-75
2024/01/28 08:53:51;;;;;;;34.05;16.33;;;;;;;;;;5019521;28;20060;-76
2024/01/28 08:56:17;;;;;;;44.83;19.45;;;;;;;;;;5023710;28;20028;-74
2024/01/28 08:58:43;;;;;;;41.60;18.48;;;;;;;;;;5016882;28;20033;-76
2024/01/28 09:01:11;;;;;;;32.05;17.52;;;;;;;;;;5014920;28;20486;-74
2024/01/28 09:03:37;;;;;;;36.03;15.80;;;;;;;;;;5005140;28;20120;-76
2024/01/28 09:06:05;;;;;;;32.58;13.50;;;;;;;;;;5021801;28;20105;-75
2024/01/28 09:08:31;;;;;;;18.65;9.75;;;;;;;;;;5015084;28;20029;-77
2024/01/28 09:10:57;;;;;;;31.85;10.25;;;;;;;;;;5014153;28;20048;-76
2024/01/28 09:13:26;;;;;;;20.75;9.75;;;;;;;;;;5017155;28;20041;-77
2024/01/28 09:15:53;;;;;;;18.45;10.48;;;;;;;;;;5014759;28;20116;-75
2024/01/28 09:18:19;;;;;;;20.40;9.88;;;;;;;;;;5017306;28;20036;-76
2024/01/28 09:20:45;;;;;;;25.25;9.48;;;;;;;;;;5022235;28;20013;-76
2024/01/28 09:23:11;;;;;;;15.23;8.48;;;;;;;;;;5018089;28;20025;-76
2024/01/28 09:25:37;;;;;;;25.83;8.65;;;;;;;;;;5020228;28;20035;-77
2024/01/28 09:28:05;;;;;;;14.77;7.22;;;;;;;;;;5017479;28;20587;-77
2024/01/28 09:30:34;;;;;;;15.90;7.18;;;;;;;;;;5024678;28;20459;-76
2024/01/28 09:33:00;;;;;;;10.68;6.75;;;;;;;;;;5003703;28;20060;-76
2024/01/28 09:35:26;;;;;;;17.50;7.55;;;;;;;;;;5004108;28;20034;-77
2024/01/28 09:37:54;;;;;;;12.90;6.97;;;;;;;;;;5009692;28;20211;-75
2024/01/28 09:40:20;;;;;;;15.90;7.90;;;;;;;;;;5016387;28;20030;-77
2024/01/28 09:42:46;;;;;;;13.32;6.97;;;;;;;;;;5024539;28;20034;-77
2024/01/28 09:45:12;;;;;;;19.00;8.82;;;;;;;;;;5024443;28;21473;-77
2024/01/28 09:47:38;;;;;;;15.27;8.68;;;;;;;;;;5024324;28;20040;-76
2024/01/28 09:50:05;;;;;;;18.83;9.10;;;0.60;99.90;;;;;;5010362;28;20030;-76
2024/01/28 09:52:32;;;;;;;11.32;7.10;;;;;;;;;;5011622;28;20047;-76
2024/01/28 09:54:58;;;;;;;15.20;8.02;;;;;;;;;;5013577;28;20039;-76
2024/01/28 09:57:25;;;;;;;11.85;6.68;;;;;;;;;;5020243;28;20037;-76
2024/01/28 09:59:51;;;;;;;15.70;6.90;;;;;;;;;;5013273;28;20029;-77
2024/01/28 10:02:17;;;;;;;25.77;13.45;;;;;;;;;;5022513;28;20626;-76
2024/01/28 10:04:45;;;;;;;15.13;9.32;;;;;;;;;;5032705;28;20078;-76
2024/01/28 10:07:11;;;;;;;22.55;10.18;;;;;;;;;;5044038;28;20038;-75
2024/01/28 10:09:37;;;;;;;15.20;9.18;;;;;;;;;;5039725;28;20132;-77
2024/01/28 10:12:04;;;;;;;13.88;6.55;;;;;;;;;;5020868;28;20251;-76
2024/01/28 10:14:30;;;;;;;17.30;5.32;;;;;;;;;;5015160;28;20028;-78
2024/01/28 10:16:59;;;;;;;12.95;6.95;;;;;;;;;;5019512;28;20037;-77
2024/01/28 10:19:25;;;;;;;13.60;6.95;;;;;;;;;;5023629;28;20036;-76
2024/01/28 10:21:52;;;;;;;12.32;4.18;;;;;;;;;;5015783;28;20040;-77
2024/01/28 10:24:18;;;;;;;13.38;6.15;;;;;;;;;;5022375;28;20029;-77
2024/01/28 10:26:44;;;;;;;17.42;10.82;;;;;;;;;;5018626;28;20224;-76
2024/01/28 10:29:10;;;;;;;11.05;7.00;;;;;;;;;;5017221;28;20029;-77
2024/01/28 10:31:37;;;;;;;12.73;8.82;;;;;;;;;;5018776;28;20496;-77
2024/01/28 10:34:03;;;;;;;16.95;11.18;;;;;;;;;;5021717;28;20033;-76
2024/01/28 10:36:32;;;;;;;12.90;8.95;;;;;;;;;;5013427;28;20048;-77
2024/01/28 10:39:01;;;;;;;13.93;6.20;;;;;;;;;;5008481;28;20484;-78
2024/01/28 10:41:28;;;;;;;9.18;5.93;;;;;;;;;;5024821;28;20261;-77
2024/01/28 10:44:00;;;;;;;17.48;6.50;;;;;;;;;;5026764;28;20842;-76
2024/01/28 10:46:35;;;;;;;12.55;5.43;;;;;;;;;;5025958;28;20041;-76
2024/01/28 10:49:03;;;;;;;10.68;5.53;;;;;;;;;;5027616;28;20426;-76
2024/01/28 10:51:30;;;;;;;19.02;7.03;;;;;;;;;;5019473;28;20252;-77
2024/01/28 10:53:56;;;;;;;9.23;4.30;;;;;;;;;;5015849;28;20056;-77
2024/01/28 10:56:22;;;;;;;9.13;4.60;;;;;;;;;;5014692;28;20025;-77
2024/01/28 10:58:50;;;;;;;12.60;6.65;;;;;;;;;;5011945;28;20083;-77
2024/01/28 11:01:17;;;;;;;14.77;6.18;;;;;;;;;;5015810;28;20029;-77
2024/01/28 11:03:43;;;;;;;10.45;6.05;;;;;;;;;;5019497;28;20496;-76
2024/01/28 11:06:09;;;;;;;13.50;5.15;;;;;;;;;;5020787;28;20021;-78
2024/01/28 11:08:35;;;;;;;9.98;5.65;;;;;;;;;;5018669;28;20037;-78
2024/01/28 11:11:01;;;;;;;16.77;5.90;;;;;;;;;;5019666;28;20029;-77
2024/01/28 11:13:27;;;;;;;12.43;5.07;;;;;;;;;;5016624;28;20033;-77
2024/01/28 11:15:56;;;;;;;15.63;4.25;;;;;;;;;;5015740;28;20038;-77
2024/01/28 11:18:32;;;;;;;9.38;4.90;;;;;;;;;;5013534;28;20040;-77
2024/01/28 11:20:58;;;;;;;9.13;4.90;;;;;;;;;;5021722;28;20547;-77
2024/01/28 11:23:29;;;;;;;9.65;4.80;;;;;;;;;;5009660;28;20042;-75
2024/01/28 11:25:55;;;;;;;13.48;4.57;;;;;;;;;;5021070;28;20488;-76
2024/01/28 11:28:22;;;;;;;7.13;4.00;;;;;;;;;;5016137;28;20030;-77
2024/01/28 11:30:52;;;;;;;7.65;4.50;;;;;;;;;;5024292;28;20052;-77
2024/01/28 11:33:18;;;;;;;9.60;5.72;;;;;;;;;;5016716;28;20488;-76
2024/01/28 11:35:45;;;;;;;9.48;3.97;;;;;;;;;;5021799;28;20388;-77
2024/01/28 11:38:11;;;;;;;7.55;3.10;;;;;;;;;;5014100;28;20043;-76
2024/01/28 11:40:38;;;;;;;10.43;4.50;;;;;;;;;;5017017;28;20035;-77
2024/01/28 11:43:05;;;;;;;8.77;5.03;;;;;;;;;;5009520;28;20128;-76
2024/01/28 11:45:31;;;;;;;10.10;4.93;;;;;;;;;;5022191;28;20080;-78
2024/01/28 11:47:57;;;;;;;6.47;4.18;;;;;;;;;;5016689;28;20510;-77
2024/01/28 11:50:23;;;;;;;7.93;3.78;;;;;;;;;;5012160;28;23963;-77
2024/01/28 11:52:49;;;;;;;15.68;5.45;;;;;;;;;;5015384;28;20033;-77
2024/01/28 11:55:17;;;;;;;12.13;5.10;;;;;;;;;;5015974;28;20037;-77
2024/01/28 11:57:44;;;;;;;9.65;4.32;;;;;;;;;;5009249;28;20496;-77
2024/01/28 12:00:10;;;;;;;9.00;4.43;;;;;;;;;;5020001;28;21496;-76
2024/01/28 12:02:37;;;;;;;5.93;3.45;;;;;;;;;;5023691;28;20504;-78
2024/01/28 12:05:04;;;;;;;11.73;4.22;;;;;;;;;;5028392;28;20033;-78
2024/01/28 12:07:37;;;;;;;7.80;3.55;;;;;;;;;;5013574;28;20041;-78
2024/01/28 12:10:05;;;;;;;13.80;5.60;;;;;;;;;;5016865;28;20032;-76
2024/01/28 12:12:34;;;;;;;14.45;5.22;;;;;;;;;;5009741;28;20059;-76
2024/01/28 12:15:01;;;;;;;24.90;6.78;;;;;;;;;;5016698;28;20118;-77
2024/01/28 12:17:27;;;;;;;19.13;7.10;;;;;;;;;;5017648;28;20537;-77
2024/01/28 12:19:53;;;;;;;28.15;11.13;;;;;;;;;;5021335;28;20021;-77
2024/01/28 12:22:20;;;;;;;30.35;8.90;;;;;;;;;;5007589;28;20030;-76
2024/01/28 12:24:46;;;;;;;32.83;8.18;;;;;;;;;;5006908;28;20060;-77
2024/01/28 12:27:13;;;;;;;21.38;5.72;;;;;;;;;;5007017;28;20037;-76
2024/01/28 12:29:39;;;;;;;8.40;3.65;;;;;;;;;;5020418;28;20486;-78
2024/01/28 12:32:06;;;;;;;17.17;5.43;;;;;;;;;;5020319;28;20044;-77
2024/01/28 12:34:32;;;;;;;7.82;3.30;;;;;;;;;;5026499;28;20439;-76
2024/01/28 12:36:58;;;;;;;13.70;4.10;;;;;;;;;;5025583;28;20022;-77
2024/01/28 12:39:24;;;;;;;10.55;3.97;;;;;;;;;;5024906;28;20041;-77
2024/01/28 12:41:50;;;;;;;8.35;3.88;;;;;;;;;;5023038;28;20037;-76
2024/01/28 12:44:16;;;;;;;6.55;4.05;;;;;;;;;;5019760;28;20033;-77
2024/01/28 12:46:42;;;;;;;9.50;4.20;;;;;;;;;;5018577;28;20512;-77
2024/01/28 12:49:08;;;;;;;8.00;3.58;;;;;;;;;;5018629;28;20033;-76
2024/01/28 12:51:34;;;;;;;6.13;3.28;;;;;;;;;;5019655;28;20140;-77
2024/01/28 12:54:01;;;;;;;6.22;2.42;;;;;;;;;;5010022;28;20112;-76
2024/01/28 12:56:27;;;;;;;8.20;2.42;;;;;;;;;;5014891;28;20037;-76
2024/01/28 12:58:52;;;;;;;4.30;2.00;;;;;;;;;;5021706;28;20029;-78
2024/01/28 13:01:18;;;;;;;7.15;2.33;;;;;;;;;;5020364;28;20067;-77
2024/01/28 13:03:44;;;;;;;4.38;2.05;;;;;;;;;;5023449;28;20025;-77
2024/01/28 13:06:10;;;;;;;5.47;2.65;;;;;;;;;;5017916;28;20065;-77
2024/01/28 13:08:36;;;;;;;8.95;3.10;;;;;;;;;;5024080;28;20038;-75
2024/01/28 13:11:04;;;;;;;6.05;2.05;;;;;;;;;;5013639;28;20044;-77
2024/01/28 13:13:31;;;;;;;6.43;2.42;;;;;;;;;;5022139;28;20033;-76
2024/01/28 13:15:57;;;;;;;9.35;3.75;;;;;;;;;;5025796;28;20315;-77
2024/01/28 13:18:23;;;;;;;8.02;3.33;;;;;;;;;;5020688;28;20248;-77
2024/01/28 13:20:49;;;;;;;10.55;4.45;;;;;;;;;;5018606;28;20092;-77
2024/01/28 13:23:15;;;;;;;11.60;4.90;;;;;;;;;;5025300;28;20512;-76
2024/01/28 13:25:41;;;;;;;10.93;3.35;;;;;;;;;;5019092;28;20038;-78
2024/01/28 13:28:08;;;;;;;12.90;4.03;;;;;;;;;;5021523;28;20065;-77
2024/01/28 13:30:34;;;;;;;11.70;3.92;;;;;;;;;;5021555;28;20408;-78
2024/01/28 13:33:00;;;;;;;6.90;2.97;;;;;;;;;;5019470;28;20025;-78
2024/01/28 13:35:26;;;;;;;6.05;2.70;;;;;;;;;;5025833;28;20480;-78
2024/01/28 13:37:51;;;;;;;2.60;1.48;;;;;;;;;;5018709;28;20033;-78
2024/01/28 13:40:18;;;;;;;4.28;1.17;;;;;;;;;;5022286;28;20033;-78
2024/01/28 13:42:43;;;;;;;2.97;0.90;;;;;;;;;;5017738;28;20033;-77
2024/01/28 13:45:13;;;;;;;3.70;0.95;;;;;;;;;;5025718;28;20491;-79
2024/01/28 13:47:41;;;;;;;2.45;1.20;;;;;;;;;;5015453;28;20429;-78
2024/01/28 13:50:07;;;;;;;1.50;0.60;;;;;;;;;;5028969;28;20029;-78
2024/01/28 13:52:33;;;;;;;2.17;0.82;;;;;;;;;;5025454;28;20026;-80
2024/01/28 13:54:59;;;;;;;4.63;0.90;;;;;;;;;;5022373;28;20026;-79
2024/01/28 13:57:25;;;;;;;2.15;0.70;;;;;;;;;;5017943;28;20424;-78
2024/01/28 13:59:51;;;;;;;1.27;0.60;;;;;;;;;;5022273;28;20541;-75
2024/01/28 14:02:17;;;;;;;2.60;0.93;;;;;;;;;;5019896;28;20176;-78
2024/01/28 14:04:43;;;;;;;1.45;0.50;;;;;;;;;;5022707;28;20029;-78
2024/01/28 14:07:09;;;;;;;1.48;0.75;;;;;;;;;;5014755;28;20021;-76
2024/01/28 14:09:35;;;;;;;2.58;0.63;;;;;;;;;;5007918;28;20475;-77
2024/01/28 14:12:01;;;;;;;2.22;0.82;;;;;;;;;;5020198;28;20034;-77
2024/01/28 14:14:27;;;;;;;4.53;1.00;;;;;;;;;;5022102;28;20021;-78
2024/01/28 14:16:53;;;;;;;3.28;1.02;;;;;;;;;;5015309;28;20361;-78
2024/01/28 14:19:19;;;;;;;1.30;0.52;;;;;;;;;;5016676;28;20147;-76
2024/01/28 14:21:46;;;;;;;2.67;0.77;;;;;;;;;;5016906;28;20510;-78
2024/01/28 14:24:12;;;;;;;4.65;2.28;;;;;;;;;;5021694;28;20362;-78
2024/01/28 14:26:38;;;;;;;3.97;1.27;;;;;;;;;;5023760;28;20033;-79
2024/01/28 14:29:04;;;;;;;3.63;1.20;;;;;;;;;;5041227;28;20036;-77
2024/01/28 14:31:30;;;;;;;5.95;1.17;;;;;;;;;;5038912;28;20013;-77